Time;durP1;ratioP1;P1;durP2;ratioP2;P2;SDS_P1;SDS_P2;PMS_P1;PMS_P2;Temp;Humidity;BMP_temperature;BMP_pressure;BME280_temperature;BME280_humidity;BME280_pressure;Samples;Min_cycle;Max_cycle;Signal;HPM_P1;HPM_P2
2023/06/06 00:01:15;;;;;;;6.97;5.50;;;25.30;41.30;;;;;;4999713;28;20412;-80
2023/06/06 00:03:44;;;;;;;8.30;5.67;;;25.40;41.40;;;;;;4999726;28;20503;-80
2023/06/06 00:06:14;;;;;;;6.57;5.70;;;25.40;41.50;;;;;;4993949;28;20470;-81
2023/06/06 00:08:42;;;;;;;5.50;5.00;;;25.30;41.50;;;;;;4997007;28;20453;-80
2023/06/06 00:11:12;;;;;;;6.33;5.73;;;25.30;41.60;;;;;;4996042;28;20447;-80
2023/06/06 00:13:42;;;;;;;5.80;5.30;;;25.30;41.60;;;;;;4999097;28;20447;-80
2023/06/06 00:16:12;;;;;;;5.87;5.27;;;25.30;41.60;;;;;;4989061;28;20496;-80
2023/06/06 00:18:41;;;;;;;5.93;5.30;;;25.20;41.70;;;;;;4990452;28;20448;-80
2023/06/06 00:21:10;;;;;;;6.73;5.47;;;25.20;41.80;;;;;;4998473;28;20479;-80
2023/06/06 00:23:38;;;;;;;6.37;5.73;;;25.20;41.80;;;;;;4990779;28;20467;-80
2023/06/06 00:26:07;;;;;;;6.83;4.90;;;25.20;41.70;;;;;;4982473;28;20535;-80
2023/06/06 00:28:36;;;;;;;6.00;5.40;;;25.20;41.90;;;;;;4998906;28;20495;-80
2023/06/06 00:31:04;;;;;;;6.63;5.10;;;25.20;41.90;;;;;;4996051;28;20428;-80
2023/06/06 00:33:33;;;;;;;5.50;4.70;;;25.20;42.00;;;;;;4993909;28;20467;-80
2023/06/06 00:36:01;;;;;;;6.40;5.50;;;25.10;41.90;;;;;;4982800;28;20478;-80
2023/06/06 00:38:29;;;;;;;5.70;5.20;;;25.10;42.00;;;;;;4998503;28;20431;-82
2023/06/06 00:40:57;;;;;;;5.03;4.40;;;25.10;42.00;;;;;;4998717;28;20548;-81
2023/06/06 00:43:25;;;;;;;7.40;4.70;;;25.10;42.10;;;;;;4990204;28;20408;-81
2023/06/06 00:45:55;;;;;;;5.20;4.67;;;25.00;42.00;;;;;;4990617;28;20567;-80
2023/06/06 00:48:23;;;;;;;4.63;4.23;;;25.10;42.00;;;;;;4993655;28;20461;-80
2023/06/06 00:50:51;;;;;;;5.23;4.50;;;25.00;42.10;;;;;;4996924;28;20455;-79
2023/06/06 00:53:20;;;;;;;5.60;5.10;;;25.00;42.20;;;;;;4993369;28;20551;-80
2023/06/06 00:55:48;;;;;;;3.80;3.60;;;25.00;42.20;;;;;;4990475;28;20474;-80
2023/06/06 00:58:16;;;;;;;6.53;4.50;;;25.00;42.20;;;;;;4991691;28;20441;-80
2023/06/06 01:00:44;;;;;;;4.23;3.93;;;25.00;42.30;;;;;;4989597;28;20444;-80
2023/06/06 01:03:14;;;;;;;5.60;4.43;;;24.90;42.30;;;;;;4991126;28;21000;-80
2023/06/06 01:05:42;;;;;;;5.10;4.60;;;25.00;42.40;;;;;;4982583;28;20521;-80
2023/06/06 01:08:12;;;;;;;4.80;4.30;;;24.90;42.30;;;;;;4994984;28;20449;-80
2023/06/06 01:10:40;;;;;;;5.63;4.00;;;24.90;42.30;;;;;;4994217;28;20435;-80
2023/06/06 01:13:13;;;;;;;4.43;4.03;;;24.90;42.40;;;;;;4998502;28;20464;-80
2023/06/06 01:15:43;;;;;;;4.30;4.00;;;24.90;42.40;;;;;;4999226;28;20506;-81
2023/06/06 01:18:12;;;;;;;4.07;3.70;;;24.90;42.50;;;;;;4999292;28;20397;-81
2023/06/06 01:20:42;;;;;;;5.87;4.50;;;24.80;42.50;;;;;;4995871;28;20951;-80
2023/06/06 01:23:12;;;;;;;4.20;3.90;;;24.80;42.40;;;;;;4990088;28;20479;-80
2023/06/06 01:25:42;;;;;;;6.30;4.40;;;24.80;42.50;;;;;;4990068;28;21072;-80
2023/06/06 01:28:12;;;;;;;4.50;4.10;;;24.80;42.60;;;;;;4997340;28;20453;-81
2023/06/06 01:30:44;;;;;;;4.97;4.40;;;24.80;42.60;;;;;;4989960;28;20420;-78
2023/06/06 01:33:19;;;;;;;5.50;4.53;;;24.70;42.50;;;;;;4989355;28;20430;-78
2023/06/06 01:35:53;;;;;;;4.50;4.10;;;24.70;42.80;;;;;;4993557;28;20447;-78
2023/06/06 01:38:25;;;;;;;4.80;3.80;;;24.70;42.70;;;;;;4990404;28;20422;-78
2023/06/06 01:40:54;;;;;;;4.47;3.80;;;24.70;42.80;;;;;;4990691;28;20879;-77
2023/06/06 01:43:23;;;;;;;4.27;3.97;;;24.70;42.80;;;;;;4990775;28;20441;-77
2023/06/06 01:45:52;;;;;;;7.43;4.10;;;24.60;42.70;;;;;;4981755;28;20466;-78
2023/06/06 01:48:20;;;;;;;4.00;3.30;;;24.70;42.90;;;;;;4983725;28;20441;-77
2023/06/06 01:50:48;;;;;;;4.20;3.60;;;24.60;42.90;;;;;;4998077;28;20450;-77
2023/06/06 01:53:16;;;;;;;4.33;3.70;;;24.60;42.80;;;;;;4992907;28;20465;-78
2023/06/06 01:55:48;;;;;;;3.73;3.43;;;24.60;43.00;;;;;;4998450;28;20469;-78
2023/06/06 01:58:17;;;;;;;6.97;3.27;;;24.60;43.00;;;;;;4991077;28;20449;-77
2023/06/06 02:00:45;;;;;;;3.87;3.50;;;24.60;42.90;;;;;;4999434;28;20428;-77
2023/06/06 02:03:14;;;;;;;4.00;3.50;;;24.60;43.10;;;;;;4987860;28;20421;-77
2023/06/06 02:05:43;;;;;;;3.57;3.30;;;24.50;43.60;;;;;;4989817;28;20504;-78
2023/06/06 02:08:17;;;;;;;3.67;3.37;;;24.50;43.00;;;;;;4999450;28;20463;-77
2023/06/06 02:10:54;;;;;;;3.77;3.37;;;24.50;43.20;;;;;;4987649;28;20490;-77
2023/06/06 02:13:28;;;;;;;3.73;3.43;;;24.50;43.00;;;;;;4994549;28;20441;-76
2023/06/06 02:15:57;;;;;;;3.43;3.20;;;24.50;43.30;;;;;;4995655;28;20465;-77
2023/06/06 02:18:27;;;;;;;3.37;3.13;;;24.50;43.30;;;;;;4994648;28;20536;-78
2023/06/06 02:20:55;;;;;;;4.17;3.30;;;24.40;43.20;;;;;;4986734;28;20437;-78
2023/06/06 02:23:23;;;;;;;3.50;3.20;;;24.40;43.20;;;;;;4994517;28;20445;-78
2023/06/06 02:25:53;;;;;;;3.67;3.27;;;24.40;43.20;;;;;;4987313;28;20457;-78
2023/06/06 02:28:21;;;;;;;3.90;3.60;;;24.40;43.20;;;;;;4989599;28;21155;-77
2023/06/06 02:30:50;;;;;;;3.20;3.00;;;24.40;43.40;;;;;;4999465;28;20445;-79
2023/06/06 02:33:19;;;;;;;2.83;2.70;;;24.30;43.30;;;;;;4992886;28;20460;-77
2023/06/06 02:35:48;;;;;;;3.10;2.90;;;24.30;43.30;;;;;;4998195;28;20508;-78
2023/06/06 02:38:16;;;;;;;2.77;2.60;;;24.30;43.30;;;;;;4992817;28;20516;-78
2023/06/06 02:40:44;;;;;;;3.43;3.13;;;24.30;43.50;;;;;;4999881;28;20453;-78
2023/06/06 02:43:15;;;;;;;3.10;2.90;;;24.30;43.40;;;;;;4995873;28;20481;-77
2023/06/06 02:45:45;;;;;;;3.47;3.00;;;24.30;43.40;;;;;;4999800;28;20471;-77
2023/06/06 02:48:13;;;;;;;3.07;2.87;;;24.20;43.40;;;;;;4997163;28;20428;-77
2023/06/06 02:50:41;;;;;;;3.03;2.83;;;24.20;43.50;;;;;;4982915;28;20446;-77
2023/06/06 02:53:11;;;;;;;4.83;3.27;;;24.20;43.40;;;;;;4997624;28;20465;-77
2023/06/06 02:55:39;;;;;;;5.57;3.30;;;24.20;43.40;;;;;;5000960;28;20551;-77
2023/06/06 02:58:23;;;;;;;2.83;2.63;;;24.10;43.40;;;;;;4986466;28;20434;-77
2023/06/06 03:00:52;;;;;;;3.13;2.93;;;24.10;43.70;;;;;;5002206;28;20507;-77
2023/06/06 03:03:20;;;;;;;3.40;3.10;;;24.10;43.60;;;;;;5000456;28;20490;-78
2023/06/06 03:05:51;;;;;;;3.23;2.80;;;24.10;43.60;;;;;;4999271;28;20465;-78
2023/06/06 03:08:19;;;;;;;3.00;2.80;;;24.10;43.70;;;;;;4984005;28;20457;-77
2023/06/06 03:10:48;;;;;;;3.60;3.30;;;24.10;43.70;;;;;;5001671;28;20451;-78
2023/06/06 03:13:16;;;;;;;3.40;2.73;;;24.10;43.80;;;;;;4989678;28;20456;-78
2023/06/06 03:15:45;;;;;;;3.70;3.10;;;24.10;43.70;;;;;;5006523;28;20454;-78
2023/06/06 03:18:17;;;;;;;2.83;2.60;;;24.00;43.60;;;;;;5015724;28;20426;-80
2023/06/06 03:20:45;;;;;;;3.33;2.80;;;24.00;43.80;;;;;;5007317;28;20728;-76
2023/06/06 03:23:13;;;;;;;7.50;2.70;;;24.00;43.80;;;;;;4996811;28;20454;-79
2023/06/06 03:25:43;;;;;;;3.07;2.87;;;24.10;43.80;;;;;;5011425;28;20439;-78
2023/06/06 03:28:11;;;;;;;2.97;2.77;;;24.00;43.70;;;;;;5005491;28;20405;-78
2023/06/06 03:30:39;;;;;;;2.90;2.70;;;24.00;43.90;;;;;;5002368;28;20440;-79
2023/06/06 03:33:07;;;;;;;2.97;2.77;;;24.00;43.80;;;;;;5000117;28;20421;-78
2023/06/06 03:35:37;;;;;;;2.63;2.43;;;24.00;44.00;;;;;;4989992;28;20474;-78
2023/06/06 03:38:06;;;;;;;3.13;2.90;;;24.00;44.00;;;;;;4993091;28;20456;-78
2023/06/06 03:40:34;;;;;;;2.87;2.67;;;24.00;43.90;;;;;;4993064;28;20444;-79
2023/06/06 03:43:02;;;;;;;5.10;2.80;;;23.90;43.90;;;;;;4993148;28;20453;-78
2023/06/06 03:45:33;;;;;;;2.53;2.43;;;24.00;44.00;;;;;;4992607;28;20528;-78
2023/06/06 03:48:02;;;;;;;2.87;2.67;;;24.00;43.90;;;;;;4984341;28;20443;-78
2023/06/06 03:50:30;;;;;;;2.67;2.47;;;24.00;43.90;;;;;;4981701;28;20545;-78
2023/06/06 03:53:01;;;;;;;3.27;2.87;;;24.00;44.00;;;;;;4990424;28;20467;-78
2023/06/06 03:55:29;;;;;;;2.63;2.43;;;23.90;44.00;;;;;;4992609;28;20481;-78
2023/06/06 03:57:57;;;;;;;3.20;2.77;;;23.90;44.00;;;;;;4993225;28;20424;-77
2023/06/06 04:00:26;;;;;;;3.17;2.60;;;24.00;43.90;;;;;;4992987;28;20954;-77
2023/06/06 04:02:56;;;;;;;7.27;2.80;;;24.00;44.00;;;;;;4984794;28;20420;-78
2023/06/06 04:05:24;;;;;;;2.63;2.50;;;24.00;44.00;;;;;;4993170;28;20451;-77
2023/06/06 04:07:53;;;;;;;2.70;2.50;;;23.90;43.90;;;;;;4992974;28;20496;-78
2023/06/06 04:10:23;;;;;;;3.10;2.90;;;23.90;44.00;;;;;;4989501;28;20450;-76
2023/06/06 04:12:51;;;;;;;4.17;2.57;;;23.90;43.90;;;;;;4989224;28;20449;-77
2023/06/06 04:15:19;;;;;;;3.03;2.80;;;24.00;44.00;;;;;;4989552;28;20468;-78
2023/06/06 04:17:48;;;;;;;2.50;2.30;;;24.00;44.00;;;;;;4987420;28;20461;-77
2023/06/06 04:20:26;;;;;;;3.20;2.63;;;23.90;44.40;;;;;;4992737;28;20495;-77
2023/06/06 04:23:00;;;;;;;3.03;2.80;;;23.90;44.00;;;;;;4988715;28;20458;-78
2023/06/06 04:25:30;;;;;;;2.70;2.50;;;24.00;44.10;;;;;;4992438;28;20514;-77
2023/06/06 04:28:00;;;;;;;2.10;2.00;;;23.90;44.00;;;;;;4992409;28;20488;-77
2023/06/06 04:30:29;;;;;;;3.03;2.83;;;23.90;44.10;;;;;;4992649;28;20474;-77
2023/06/06 04:32:58;;;;;;;2.27;2.07;;;23.90;44.10;;;;;;4993195;28;20449;-77
2023/06/06 04:35:26;;;;;;;2.70;2.50;;;24.00;44.00;;;;;;4985079;28;20453;-77
2023/06/06 04:37:57;;;;;;;3.00;2.67;;;23.90;44.00;;;;;;4988427;28;20480;-78
2023/06/06 04:40:32;;;;;;;2.80;2.57;;;23.90;44.70;;;;;;4979368;28;20512;-78
2023/06/06 04:43:23;;;;;;;2.67;2.47;;;24.00;44.10;;;;;;4988121;28;20430;-77
2023/06/06 04:45:53;;;;;;;2.90;2.70;;;24.00;44.10;;;;;;4996660;28;20456;-78
2023/06/06 04:48:25;;;;;;;2.50;2.30;;;24.00;43.90;;;;;;4987523;28;20420;-78
2023/06/06 04:50:55;;;;;;;3.17;2.73;;;24.00;44.00;;;;;;4989221;28;20423;-77
2023/06/06 04:53:23;;;;;;;2.50;2.40;;;24.00;44.00;;;;;;4992604;28;20967;-78
2023/06/06 04:55:53;;;;;;;2.67;2.30;;;24.00;44.00;;;;;;4991587;28;20524;-77
2023/06/06 04:58:23;;;;;;;2.60;2.40;;;24.00;44.20;;;;;;4995462;28;20528;-77
2023/06/06 05:00:53;;;;;;;2.43;2.30;;;24.00;43.90;;;;;;4987947;28;20451;-78
2023/06/06 05:03:22;;;;;;;2.60;2.40;;;24.00;44.00;;;;;;4993041;28;20452;-78
2023/06/06 05:05:51;;;;;;;2.77;2.50;;;24.00;44.10;;;;;;4985033;28;20440;-78
2023/06/06 05:08:20;;;;;;;2.70;2.57;;;24.10;44.00;;;;;;4992576;28;20532;-77
2023/06/06 05:10:48;;;;;;;2.30;2.10;;;24.10;44.10;;;;;;4989537;28;20509;-78
2023/06/06 05:13:18;;;;;;;5.27;2.73;;;24.00;44.10;;;;;;4986986;28;20537;-77
2023/06/06 05:15:48;;;;;;;2.60;2.43;;;24.00;44.80;;;;;;4987837;28;20479;-82
2023/06/06 05:18:18;;;;;;;3.20;2.80;;;24.10;44.20;;;;;;4995483;28;20481;-83
2023/06/06 05:20:46;;;;;;;2.63;2.43;;;24.10;44.20;;;;;;4997633;28;20946;-82
2023/06/06 05:23:15;;;;;;;2.60;2.50;;;24.10;44.20;;;;;;4994083;28;20477;-82
2023/06/06 05:25:43;;;;;;;2.67;2.47;;;24.10;44.00;;;;;;4994496;28;20882;-82
2023/06/06 05:28:11;;;;;;;2.67;2.47;;;24.10;44.20;;;;;;4989823;28;20473;-81
2023/06/06 05:30:39;;;;;;;2.83;2.57;;;24.10;44.10;;;;;;4998009;28;20445;-82
2023/06/06 05:33:09;;;;;;;3.00;2.80;;;24.10;44.20;;;;;;4999127;28;20445;-82
2023/06/06 05:35:38;;;;;;;2.90;2.20;;;24.10;44.10;;;;;;4986450;28;20480;-81
2023/06/06 05:38:07;;;;;;;2.77;2.57;;;24.10;44.80;;;;;;4987980;28;20441;-81
2023/06/06 05:40:36;;;;;;;2.73;2.53;;;24.10;44.00;;;;;;4996999;28;20544;-79
2023/06/06 05:43:04;;;;;;;2.40;2.20;;;24.10;44.00;;;;;;4996347;28;20868;-82
2023/06/06 05:45:32;;;;;;;3.60;2.43;;;24.10;44.20;;;;;;4999130;28;20500;-82
2023/06/06 05:48:00;;;;;;;2.90;2.50;;;24.20;44.20;;;;;;4989401;28;20431;-81
2023/06/06 05:50:30;;;;;;;2.80;2.60;;;24.20;44.10;;;;;;4991909;28;20420;-82
2023/06/06 05:52:58;;;;;;;3.83;3.00;;;24.20;44.10;;;;;;4992623;28;20945;-81
2023/06/06 05:55:30;;;;;;;2.87;2.43;;;24.20;44.20;;;;;;4998107;28;20494;-81
2023/06/06 05:57:58;;;;;;;2.77;2.57;;;24.20;44.20;;;;;;4997185;28;20500;-81
2023/06/06 06:00:26;;;;;;;2.50;2.30;;;24.20;44.10;;;;;;4998421;28;20415;-81
2023/06/06 06:02:56;;;;;;;2.80;2.60;;;24.20;44.10;;;;;;4990426;28;20460;-81
2023/06/06 06:05:28;;;;;;;3.63;2.63;;;24.20;44.30;;;;;;4982146;28;20476;-80
2023/06/06 06:07:59;;;;;;;3.10;2.37;;;24.30;44.10;;;;;;4998786;28;20457;-81
2023/06/06 06:10:27;;;;;;;2.43;2.33;;;24.30;44.10;;;;;;4997628;28;20472;-81
2023/06/06 06:12:56;;;;;;;2.27;2.17;;;24.30;44.20;;;;;;4996870;28;20843;-80
2023/06/06 06:15:24;;;;;;;2.43;2.30;;;24.30;44.10;;;;;;4995334;28;21005;-81
2023/06/06 06:17:52;;;;;;;3.00;2.80;;;24.30;44.20;;;;;;4996320;28;20493;-80
2023/06/06 06:20:21;;;;;;;2.53;2.43;;;24.30;44.20;;;;;;4989254;28;20445;-82
2023/06/06 06:22:49;;;;;;;2.77;2.53;;;24.40;44.10;;;;;;4998960;28;20472;-81
2023/06/06 06:25:20;;;;;;;2.90;2.60;;;24.40;43.90;;;;;;4997164;28;20447;-80
2023/06/06 06:27:48;;;;;;;2.30;2.20;;;24.40;44.20;;;;;;4997014;28;20446;-81
2023/06/06 06:30:16;;;;;;;3.13;2.40;;;24.40;44.20;;;;;;4999358;28;20453;-81
2023/06/06 06:32:45;;;;;;;3.00;2.80;;;24.50;44.10;;;;;;4998435;28;20465;-81
2023/06/06 06:35:13;;;;;;;2.83;2.60;;;24.50;44.10;;;;;;4998003;28;20502;-80
2023/06/06 06:37:41;;;;;;;2.90;2.70;;;24.50;44.10;;;;;;4982688;28;20478;-80
2023/06/06 06:40:10;;;;;;;2.73;2.53;;;24.50;44.20;;;;;;4988663;28;20408;-81
2023/06/06 06:42:43;;;;;;;2.47;2.27;;;24.60;44.00;;;;;;4993679;28;20926;-81
2023/06/06 06:45:13;;;;;;;3.37;3.07;;;24.60;44.10;;;;;;4996068;28;20468;-81
2023/06/06 06:47:43;;;;;;;3.60;2.80;;;24.70;44.00;;;;;;4996451;28;20446;-81
2023/06/06 06:50:11;;;;;;;3.43;2.60;;;24.70;44.00;;;;;;4993686;28;20457;-80
2023/06/06 06:52:39;;;;;;;3.30;3.00;;;24.80;44.00;;;;;;4989741;28;20424;-81
2023/06/06 06:55:09;;;;;;;2.60;2.40;;;24.80;44.00;;;;;;4989882;28;20444;-81
2023/06/06 06:57:39;;;;;;;2.70;2.47;;;24.80;44.10;;;;;;4993433;28;20469;-81
2023/06/06 07:00:12;;;;;;;2.70;2.60;;;24.90;43.90;;;;;;4997309;28;20445;-80
2023/06/06 07:02:42;;;;;;;2.83;2.63;;;24.90;43.90;;;;;;4995473;28;20457;-81
2023/06/06 07:05:11;;;;;;;2.73;2.50;;;24.90;44.00;;;;;;4990016;28;20478;-81
2023/06/06 07:07:46;;;;;;;2.60;2.40;;;25.00;44.00;;;;;;4996553;28;20424;-81
2023/06/06 07:10:15;;;;;;;2.67;2.47;;;25.10;44.10;;;;;;4995565;28;20507;-81
2023/06/06 07:12:49;;;;;;;2.60;2.40;;;25.10;43.80;;;;;;4982481;28;20445;-81
2023/06/06 07:15:19;;;;;;;4.03;2.90;;;25.20;44.00;;;;;;4981148;28;20444;-82
2023/06/06 07:17:49;;;;;;;2.50;2.40;;;25.20;43.80;;;;;;4996352;28;20500;-81
2023/06/06 07:20:19;;;;;;;3.40;2.60;;;25.30;43.90;;;;;;4988653;28;20936;-81
2023/06/06 07:22:49;;;;;;;3.03;2.30;;;25.40;43.70;;;;;;4990910;28;20416;-81
2023/06/06 07:25:17;;;;;;;3.57;2.50;;;25.50;43.70;;;;;;4987505;28;20464;-81
2023/06/06 07:27:45;;;;;;;2.87;2.60;;;25.60;43.50;;;;;;4996352;28;20438;-82
2023/06/06 07:30:14;;;;;;;2.33;2.23;;;25.60;43.60;;;;;;4997274;28;20484;-81
2023/06/06 07:32:43;;;;;;;3.73;2.50;;;25.70;43.50;;;;;;4997855;28;20412;-80
2023/06/06 07:35:12;;;;;;;2.93;2.73;;;25.80;43.50;;;;;;4987356;28;20478;-80
2023/06/06 07:37:40;;;;;;;2.83;2.50;;;25.90;43.50;;;;;;4982099;28;20459;-80
2023/06/06 07:40:09;;;;;;;2.47;2.37;;;26.00;43.50;;;;;;4989752;28;20477;-80
2023/06/06 07:42:37;;;;;;;3.57;2.40;;;26.10;43.40;;;;;;4989235;28;20484;-80
2023/06/06 07:45:06;;;;;;;4.23;2.37;;;26.20;43.40;;;;;;4985862;28;20461;-81
2023/06/06 07:47:34;;;;;;;6.33;2.50;;;26.30;43.30;;;;;;4990677;28;20484;-80
2023/06/06 07:50:05;;;;;;;2.93;2.73;;;26.40;43.30;;;;;;4991352;28;20449;-82
2023/06/06 07:52:34;;;;;;;3.67;2.67;;;26.50;43.00;;;;;;4980103;28;20447;-82
2023/06/06 07:55:03;;;;;;;3.27;2.80;;;26.60;43.00;;;;;;4990364;28;20476;-83
2023/06/06 07:57:33;;;;;;;5.60;2.70;;;26.70;43.00;;;;;;4994501;28;20473;-82
2023/06/06 08:00:07;;;;;;;3.47;2.87;;;26.80;43.00;;;;;;4994612;28;20456;-85
2023/06/06 08:02:35;;;;;;;2.90;2.70;;;26.90;43.10;;;;;;4981586;28;20449;-79
2023/06/06 08:05:05;;;;;;;2.70;2.50;;;27.10;43.20;;;;;;4988727;28;20421;-82
2023/06/06 08:07:34;;;;;;;3.60;3.17;;;27.20;42.80;;;;;;4993801;28;20420;-82
2023/06/06 08:10:02;;;;;;;3.00;2.57;;;27.40;42.70;;;;;;4995226;28;20503;-81
2023/06/06 08:12:30;;;;;;;3.10;2.63;;;27.50;42.60;;;;;;4990943;28;20453;-82
2023/06/06 08:14:59;;;;;;;3.60;2.80;;;27.60;42.60;;;;;;5001072;28;20419;-81
2023/06/06 08:17:27;;;;;;;3.37;2.93;;;27.70;42.50;;;;;;4997844;28;20483;-81
2023/06/06 08:19:55;;;;;;;9.40;2.90;;;27.80;42.30;;;;;;5000108;28;20447;-79
2023/06/06 08:22:27;;;;;;;4.03;2.93;;;28.00;42.30;;;;;;4992123;28;20411;-80
2023/06/06 08:24:56;;;;;;;4.00;2.90;;;28.20;42.30;;;;;;4998480;28;20512;-81
2023/06/06 08:27:24;;;;;;;4.27;2.90;;;28.30;42.00;;;;;;4999647;28;20463;-80
2023/06/06 08:29:52;;;;;;;3.10;2.87;;;28.40;41.80;;;;;;4998758;28;20457;-79
2023/06/06 08:32:21;;;;;;;3.63;3.10;;;28.60;41.80;;;;;;4984776;28;20501;-82
2023/06/06 08:34:49;;;;;;;3.83;2.70;;;28.70;41.60;;;;;;4986129;28;20438;-82
2023/06/06 08:37:18;;;;;;;7.03;2.87;;;28.80;41.50;;;;;;4986627;28;20520;-81
2023/06/06 08:39:47;;;;;;;3.07;2.83;;;29.00;41.50;;;;;;5000985;28;20449;-82
2023/06/06 08:42:16;;;;;;;4.87;3.00;;;29.10;41.30;;;;;;4998234;28;20981;-82
2023/06/06 08:44:45;;;;;;;4.80;3.43;;;29.30;41.20;;;;;;4989077;28;20420;-82
2023/06/06 08:47:13;;;;;;;4.20;2.73;;;29.40;41.10;;;;;;4987932;28;20425;-82
2023/06/06 08:49:41;;;;;;;3.53;3.20;;;29.60;41.00;;;;;;4982217;28;20477;-81
2023/06/06 08:52:12;;;;;;;3.20;2.53;;;29.70;40.90;;;;;;4989267;28;20446;-82
2023/06/06 08:54:41;;;;;;;7.43;2.90;;;29.90;40.80;;;;;;4993807;28;20445;-80
2023/06/06 08:57:11;;;;;;;3.67;2.80;;;30.00;40.50;;;;;;4994783;28;20490;-81
2023/06/06 08:59:39;;;;;;;6.30;3.10;;;30.20;40.40;;;;;;4987380;28;20536;-79
2023/06/06 09:02:07;;;;;;;3.57;3.00;;;30.30;40.30;;;;;;4979597;28;20454;-82
2023/06/06 09:04:35;;;;;;;3.13;2.80;;;30.50;40.20;;;;;;4991683;28;20453;-82
2023/06/06 09:07:08;;;;;;;7.10;2.80;;;30.60;40.00;;;;;;4984904;28;20444;-81
2023/06/06 09:09:37;;;;;;;6.03;3.13;;;30.80;39.90;;;;;;4992522;28;20484;-82
2023/06/06 09:12:07;;;;;;;4.50;3.10;;;31.00;39.80;;;;;;4985454;28;20476;-82
2023/06/06 09:14:36;;;;;;;4.87;3.07;;;31.10;39.50;;;;;;4984322;28;20500;-82
2023/06/06 09:17:05;;;;;;;3.67;2.40;;;31.20;39.40;;;;;;4988822;28;20435;-82
2023/06/06 09:19:33;;;;;;;2.83;2.50;;;31.40;39.30;;;;;;4996001;28;20527;-83
2023/06/06 09:22:07;;;;;;;5.63;2.80;;;31.50;39.10;;;;;;4988863;28;20473;-81
2023/06/06 09:24:36;;;;;;;2.73;2.53;;;31.60;39.00;;;;;;4996719;28;20492;-82
2023/06/06 09:27:05;;;;;;;5.33;3.20;;;31.80;38.80;;;;;;4981414;28;20501;-82
2023/06/06 09:29:40;;;;;;;2.60;2.40;;;32.00;38.80;;;;;;4989146;28;20488;-82
2023/06/06 09:32:09;;;;;;;3.00;2.67;;;32.10;38.40;;;;;;4986105;28;20453;-81
2023/06/06 09:34:37;;;;;;;4.90;2.80;;;32.30;38.40;;;;;;4996528;28;20481;-82
2023/06/06 09:37:06;;;;;;;5.50;2.80;;;32.40;38.20;;;;;;4989578;28;20876;-82
2023/06/06 09:39:34;;;;;;;4.97;3.00;;;32.60;38.00;;;;;;4992588;28;21008;-82
2023/06/06 09:42:07;;;;;;;3.00;2.70;;;32.70;37.90;;;;;;4994408;28;20484;-81
2023/06/06 09:44:36;;;;;;;2.60;2.43;;;32.80;37.70;;;;;;4993774;28;20529;-81
2023/06/06 09:47:06;;;;;;;3.57;2.57;;;33.00;37.60;;;;;;4986369;28;20466;-81
2023/06/06 09:49:35;;;;;;;4.53;2.87;;;33.20;37.40;;;;;;4979696;28;20457;-81
2023/06/06 09:52:04;;;;;;;4.13;2.50;;;33.30;37.20;;;;;;4993586;28;20450;-81
2023/06/06 09:54:32;;;;;;;2.77;2.40;;;33.40;37.00;;;;;;4985792;28;20446;-80
2023/06/06 09:57:00;;;;;;;2.80;2.60;;;33.60;37.00;;;;;;4988150;28;20469;-81
2023/06/06 09:59:29;;;;;;;4.80;2.90;;;33.80;36.80;;;;;;4983443;28;20465;-82
2023/06/06 10:01:58;;;;;;;3.53;2.77;;;33.90;36.60;;;;;;4990531;28;20973;-81
2023/06/06 10:04:28;;;;;;;3.50;2.60;;;34.10;36.40;;;;;;4992870;28;20454;-79
2023/06/06 10:06:58;;;;;;;2.63;2.17;;;34.20;36.20;;;;;;4989623;28;20477;-82
2023/06/06 10:09:27;;;;;;;4.73;2.67;;;34.40;36.10;;;;;;4978143;28;20470;-82
2023/06/06 10:11:56;;;;;;;2.87;2.40;;;34.50;35.90;;;;;;4987419;28;20457;-82
2023/06/06 10:14:24;;;;;;;2.77;2.23;;;34.70;35.70;;;;;;4990795;28;20456;-82
2023/06/06 10:16:52;;;;;;;2.80;2.33;;;34.90;35.60;;;;;;4989401;28;20508;-82
2023/06/06 10:19:21;;;;;;;4.70;2.60;;;35.00;35.40;;;;;;4989014;28;20481;-82
2023/06/06 10:21:51;;;;;;;2.60;2.40;;;35.20;35.20;;;;;;4990901;28;20441;-82
2023/06/06 10:24:19;;;;;;;5.10;2.13;;;35.30;35.00;;;;;;4996703;28;20489;-82
2023/06/06 10:26:49;;;;;;;3.43;2.20;;;35.50;34.90;;;;;;4998297;28;20485;-83
2023/06/06 10:29:20;;;;;;;3.70;2.30;;;35.70;34.70;;;;;;4997204;28;20442;-82
2023/06/06 10:31:51;;;;;;;3.37;2.40;;;35.80;34.50;;;;;;4986084;28;20477;-83
2023/06/06 10:34:23;;;;;;;2.67;2.47;;;36.00;34.40;;;;;;4992416;28;20449;-83
2023/06/06 10:36:52;;;;;;;2.73;2.53;;;36.20;34.20;;;;;;4985002;28;20998;-84
2023/06/06 10:39:21;;;;;;;3.23;2.03;;;36.30;33.90;;;;;;4986509;28;20473;-83
2023/06/06 10:41:53;;;;;;;4.23;2.40;;;36.50;33.80;;;;;;4992734;28;20552;-84
2023/06/06 10:44:27;;;;;;;4.20;2.30;;;36.60;33.70;;;;;;4987147;28;20438;-83
2023/06/06 10:47:28;;;;;;;2.03;1.93;;;36.80;33.70;;;;;;4995344;28;20522;-84
2023/06/06 10:50:23;;;;;;;2.73;2.23;;;37.00;33.20;;;;;;4990578;28;20453;-83
2023/06/06 10:52:55;;;;;;;3.10;2.10;;;37.10;33.00;;;;;;4995670;28;20450;-83
2023/06/06 10:55:42;;;;;;;2.30;2.20;;;37.30;32.80;;;;;;4995114;28;20461;-83
2023/06/06 10:58:23;;;;;;;2.27;2.17;;;37.40;32.60;;;;;;4997221;28;20449;-83
2023/06/06 11:00:58;;;;;;;4.20;2.33;;;37.60;32.50;;;;;;4996836;28;20480;-84
2023/06/06 11:03:33;;;;;;;2.40;2.30;;;37.80;32.40;;;;;;4993108;28;20965;-83
2023/06/06 11:06:09;;;;;;;2.30;2.20;;;38.00;32.10;;;;;;4990420;28;20540;-83
2023/06/06 11:08:40;;;;;;;2.03;1.93;;;38.10;32.00;;;;;;4987715;28;20488;-83
2023/06/06 11:11:23;;;;;;;2.10;1.90;;;38.30;31.80;;;;;;4995258;28;20452;-83
2023/06/06 11:13:56;;;;;;;2.87;1.90;;;38.50;31.60;;;;;;4991071;28;20524;-83
2023/06/06 11:16:46;;;;;;;2.00;1.63;;;38.60;31.40;;;;;;4977867;28;20477;-83
2023/06/06 11:19:16;;;;;;;2.17;2.07;;;39.40;30.80;;;;;;4984305;28;20476;-83
2023/06/06 11:21:45;;;;;;;1.90;1.80;;;40.40;29.80;;;;;;4978328;28;20968;-83
2023/06/06 11:24:18;;;;;;;1.67;1.57;;;41.20;28.90;;;;;;4978345;28;20456;-81
2023/06/06 11:26:47;;;;;;;2.93;2.27;;;41.90;28.30;;;;;;4995804;28;20464;-81
2023/06/06 11:29:16;;;;;;;1.67;1.57;;;42.60;27.70;;;;;;4978410;28;20879;-81
2023/06/06 11:31:45;;;;;;;1.87;1.77;;;43.20;27.10;;;;;;4985097;28;20449;-81
2023/06/06 11:34:14;;;;;;;1.80;1.70;;;43.80;26.40;;;;;;4994648;28;20456;-81
2023/06/06 11:36:44;;;;;;;1.70;1.60;;;44.40;26.00;;;;;;4979776;28;20480;-81
2023/06/06 11:39:13;;;;;;;1.70;1.60;;;44.90;25.40;;;;;;4987939;28;20485;-82
2023/06/06 11:41:44;;;;;;;1.63;1.53;;;45.40;25.20;;;;;;4991888;28;20460;-83
2023/06/06 11:44:14;;;;;;;1.20;1.20;;;45.70;24.50;;;;;;4997403;28;20520;-83
2023/06/06 11:46:48;;;;;;;1.40;1.30;;;45.90;24.30;;;;;;4986473;28;20464;-82
2023/06/06 11:49:16;;;;;;;1.17;1.17;;;45.90;24.20;;;;;;4997705;28;20986;-83
2023/06/06 11:51:44;;;;;;;1.60;1.60;;;46.10;24.20;;;;;;4985759;28;20441;-82
2023/06/06 11:54:17;;;;;;;1.47;1.47;;;46.50;24.30;;;;;;4990023;28;20479;-83
2023/06/06 11:56:47;;;;;;;1.70;1.60;;;46.50;24.00;;;;;;4998255;28;20563;-83
2023/06/06 11:59:15;;;;;;;1.80;1.50;;;46.60;23.80;;;;;;5010120;28;20480;-82
2023/06/06 12:01:52;;;;;;;1.70;1.60;;;46.40;24.20;;;;;;4988815;28;20448;-82
2023/06/06 12:04:21;;;;;;;1.40;1.30;;;46.20;24.10;;;;;;4995997;28;20448;-81
2023/06/06 12:06:49;;;;;;;1.70;1.60;;;46.10;24.20;;;;;;4994077;28;20468;-81
2023/06/06 12:09:19;;;;;;;1.70;1.60;;;45.90;24.50;;;;;;4991929;28;20468;-80
2023/06/06 12:11:53;;;;;;;1.40;1.40;;;45.70;24.30;;;;;;4989126;28;20535;-82
2023/06/06 12:14:24;;;;;;;1.70;1.60;;;45.30;24.50;;;;;;4998091;28;20494;-79
2023/06/06 12:16:52;;;;;;;1.50;1.50;;;45.20;24.80;;;;;;4991637;28;20496;-81
2023/06/06 12:19:20;;;;;;;1.60;1.50;;;44.90;24.90;;;;;;4994319;28;20472;-81
2023/06/06 12:21:49;;;;;;;1.40;1.40;;;44.80;25.10;;;;;;4987915;28;20452;-81
2023/06/06 12:24:21;;;;;;;1.80;1.70;;;44.60;25.10;;;;;;4988684;28;20500;-80
2023/06/06 12:26:56;;;;;;;5.03;1.40;;;44.60;25.10;;;;;;4994752;28;20496;-81
2023/06/06 12:29:26;;;;;;;1.57;1.53;;;44.50;25.50;;;;;;4999162;28;20471;-82
2023/06/06 12:32:15;;;;;;;1.60;1.60;;;44.30;25.90;;;;;;4996654;28;20536;-81
2023/06/06 12:34:44;;;;;;;1.70;1.60;;;44.00;26.20;;;;;;4993855;28;20472;-82
2023/06/06 12:37:13;;;;;;;2.10;2.00;;;43.80;26.40;;;;;;4994050;28;20436;-81
2023/06/06 12:39:41;;;;;;;1.80;1.70;;;43.50;26.50;;;;;;4996829;28;20505;-80
2023/06/06 12:42:15;;;;;;;3.50;2.00;;;43.30;26.50;;;;;;4996760;28;20544;-79
2023/06/06 12:44:43;;;;;;;3.43;2.00;;;42.90;26.70;;;;;;4998733;28;20472;-81
2023/06/06 12:47:12;;;;;;;4.80;1.97;;;42.60;26.80;;;;;;4998564;28;20476;-82
2023/06/06 12:49:40;;;;;;;2.30;2.20;;;42.60;27.00;;;;;;4994659;28;20477;-82
2023/06/06 12:52:09;;;;;;;4.23;2.20;;;42.60;27.00;;;;;;4990813;28;20468;-81
2023/06/06 12:54:41;;;;;;;1.80;1.70;;;42.40;26.90;;;;;;4990585;28;20449;-82
2023/06/06 12:57:10;;;;;;;2.40;2.30;;;42.30;26.90;;;;;;4996219;28;20471;-83
2023/06/06 12:59:41;;;;;;;2.10;2.00;;;42.30;27.10;;;;;;4996737;28;20472;-83
2023/06/06 13:02:10;;;;;;;2.43;2.20;;;42.30;27.10;;;;;;4997292;28;20451;-83